Airport View

Enter AWOS ICAO identifier for current METAR.

ex. KFNL

KTOP 112153Z 15008KT 10SM CLR 11/M06 A3028 RMK AO2 SLP258 T01111061

11 Dec 2019 22:46

Frequency: 121.275

Phone: 785-234-1591

Other Area AWOS: KFOE - KLWC - KOWI - KIXD

TAF KTOP 111720Z 1118/1218 15006KT P6SM SKC FM120300 17010KT P6SM SCT250 WS015/21050KT FM121300 20013G21KT P6SM BKN015